Time;durP1;ratioP1;P1;durP2;ratioP2;P2;SDS_P1;SDS_P2;PMS_P1;PMS_P2;Temp;Humidity;BMP_temperature;BMP_pressure;BME280_temperature;BME280_humidity;BME280_pressure;Samples;Min_cycle;Max_cycle;Signal;HPM_P1;HPM_P2
2023/08/19 00:08:53;;;;;;;3.75;2.70;;;22.80;90.50;;;;;;4860496;29;20371;-87
2023/08/19 00:11:54;;;;;;;3.92;2.78;;;22.70;90.60;;;;;;4869321;29;20127;-88
2023/08/19 00:19:42;;;;;;;4.68;3.45;;;22.70;90.70;;;;;;4878595;29;20084;-87
2023/08/19 00:37:35;;;;;;;3.95;2.90;;;22.60;90.90;;;;;;4862589;29;20027;-84
2023/08/19 01:20:33;;;;;;;4.80;3.17;;;22.40;91.30;;;;;;5764618;23;20072;-86
2023/08/19 01:34:10;;;;;;;4.70;3.50;;;22.40;91.40;;;;;;4826056;29;20052;-87
2023/08/19 01:55:33;;;;;;;5.65;3.83;;;22.20;91.70;;;;;;4774032;30;20580;-86
2023/08/19 01:58:41;;;;;;;7.75;4.82;;;22.10;91.70;;;;;;4757951;30;20056;-88
2023/08/19 02:02:16;;;;;;;6.65;4.40;;;22.20;91.80;;;;;;4734650;30;20151;-87
2023/08/19 02:19:23;;;;;;;5.43;3.95;;;22.10;91.90;;;;;;4758225;29;20053;-87
2023/08/19 02:31:16;;;;;;;5.35;3.95;;;22.20;91.90;;;;;;4746677;30;20048;-87
2023/08/19 02:33:53;;;;;;;5.15;3.63;;;22.20;91.90;;;;;;4804538;29;20043;-87
2023/08/19 02:46:34;;;;;;;5.45;3.65;;;22.30;91.90;;;;;;4838056;29;20524;-87
2023/08/19 02:49:20;;;;;;;4.88;3.97;;;22.30;91.90;;;;;;4818234;29;20053;-86
2023/08/19 02:52:50;;;;;;;5.07;3.47;;;22.30;91.90;;;;;;4811917;29;20112;-87
2023/08/19 02:56:12;;;;;;;4.75;3.75;;;22.40;91.90;;;;;;4809820;29;20054;-88
2023/08/19 03:12:10;;;;;;;4.53;3.40;;;22.40;91.90;;;;;;4871831;29;20104;-86
2023/08/19 03:16:21;;;;;;;4.60;3.50;;;22.40;91.90;;;;;;4799459;29;20124;-88
2023/08/19 03:29:48;;;;;;;4.60;3.05;;;22.40;91.90;;;;;;4813229;29;20130;-88
2023/08/19 03:32:20;;;;;;;5.85;4.10;;;22.40;91.90;;;;;;4795716;29;20145;-88
2023/08/19 03:39:26;;;;;;;5.50;3.42;;;22.50;91.90;;;;;;4799283;29;20041;-88
2023/08/19 03:47:46;;;;;;;5.40;3.60;;;22.50;92.00;;;;;;4769753;30;20112;-88
2023/08/19 03:59:48;;;;;;;4.50;3.80;;;22.40;92.00;;;;;;4787533;30;20170;-88
2023/08/19 04:03:45;;;;;;;4.85;3.58;;;22.40;92.00;;;;;;4726865;30;20653;-89
2023/08/19 04:07:38;;;;;;;6.28;3.53;;;22.50;92.00;;;;;;4712939;30;20572;-89
2023/08/19 04:36:33;;;;;;;4.95;3.28;;;22.50;91.90;;;;;;4777757;30;20058;-87
2023/08/19 04:39:20;;;;;;;3.80;2.88;;;22.50;91.90;;;;;;4812132;29;20450;-88
2023/08/19 04:43:31;;;;;;;5.60;3.40;;;22.50;91.90;;;;;;4816880;29;20064;-89
2023/08/19 04:46:12;;;;;;;5.30;3.20;;;22.50;91.90;;;;;;4850127;29;20076;-89
2023/08/19 05:15:48;;;;;;;5.05;3.05;;;22.50;91.80;;;;;;4811118;29;20079;-87
2023/08/19 05:43:25;;;;;;;3.22;1.88;;;22.80;91.70;;;;;;4809910;29;20453;-89
2023/08/19 05:45:53;;;;;;;3.17;2.00;;;22.80;91.70;;;;;;4777808;29;20055;-89
2023/08/19 05:48:20;;;;;;;3.78;2.70;;;22.80;91.70;;;;;;4774438;29;20099;-85
2023/08/19 05:50:49;;;;;;;3.97;2.53;;;22.80;91.70;;;;;;4781861;29;20047;-85
2023/08/19 05:53:38;;;;;;;4.13;2.50;;;22.80;91.70;;;;;;4783805;29;20086;-84
2023/08/19 05:56:45;;;;;;;3.70;2.30;;;22.90;91.70;;;;;;4792597;29;20051;-86
2023/08/19 06:00:16;;;;;;;;;;;;;;;;;;;;;
2023/08/19 06:08:48;;;;;;;3.78;2.20;;;22.90;91.60;;;;;;4824233;29;20139;-88
2023/08/19 06:12:28;;;;;;;3.67;2.30;;;22.90;91.60;;;;;;4821782;29;20381;-88
2023/08/19 06:20:32;;;;;;;2.97;1.98;;;23.00;91.40;;;;;;4818069;29;20046;-88
2023/08/19 06:23:20;;;;;;;2.92;1.73;;;23.20;91.30;;;;;;4742602;30;20060;-88
2023/08/19 06:30:30;;;;;;;2.88;1.80;;;23.30;91.20;;;;;;4750356;30;20040;-88
2023/08/19 06:38:29;;;;;;;2.92;1.50;;;23.50;91.00;;;;;;4735712;30;20083;-90
2023/08/19 06:42:25;;;;;;;3.33;1.85;;;23.60;91.00;;;;;;4716610;30;20080;-87
2023/08/19 06:49:53;;;;;;;3.53;1.75;;;23.70;90.90;;;;;;4782556;29;20046;-87
2023/08/19 06:58:03;;;;;;;2.70;1.58;;;23.80;90.80;;;;;;4793741;29;20113;-88
2023/08/19 07:05:12;;;;;;;3.95;1.90;;;23.80;90.60;;;;;;4844907;29;19912;-92
2023/08/19 07:08:16;;;;;;;3.10;1.67;;;24.00;90.50;;;;;;4832713;29;20054;-88
2023/08/19 07:11:16;;;;;;;3.03;1.77;;;24.10;90.50;;;;;;4826621;29;20080;-90
2023/08/19 07:14:38;;;;;;;2.58;1.58;;;24.20;90.40;;;;;;4847657;29;20073;-87
2023/08/19 07:22:42;;;;;;;;;;;;;;;;;;;;;
2023/08/19 07:26:25;;;;;;;2.53;1.60;;;24.40;90.20;;;;;;4837536;29;20616;-88
2023/08/19 07:29:10;;;;;;;2.28;1.35;;;24.50;90.10;;;;;;4858893;29;20041;-82
2023/08/19 07:31:37;;;;;;;3.53;1.58;;;24.60;90.10;;;;;;4856946;29;20136;-81
2023/08/19 07:34:04;;;;;;;2.63;1.60;;;24.70;90.00;;;;;;4867475;29;20094;-81
2023/08/19 07:36:31;;;;;;;3.22;1.70;;;24.70;89.90;;;;;;4836893;29;20168;-81
2023/08/19 07:38:58;;;;;;;2.42;1.55;;;24.80;89.90;;;;;;4850718;29;20131;-82
2023/08/19 07:41:25;;;;;;;3.03;1.80;;;24.80;89.90;;;;;;4845994;29;20065;-81
2023/08/19 07:43:54;;;;;;;3.92;2.00;;;24.80;89.90;;;;;;4859300;29;20124;-82
2023/08/19 07:46:21;;;;;;;2.25;1.60;;;24.80;90.00;;;;;;4851913;29;20049;-81
2023/08/19 07:48:48;;;;;;;2.58;1.60;;;24.70;89.90;;;;;;4855487;29;20113;-82
2023/08/19 07:51:16;;;;;;;2.78;1.77;;;24.70;90.00;;;;;;4862616;29;20069;-81
2023/08/19 07:53:43;;;;;;;3.15;1.55;;;24.70;90.00;;;;;;4875960;29;20045;-83
2023/08/19 07:56:10;;;;;;;3.47;2.00;;;24.70;90.00;;;;;;4864646;29;20051;-83
2023/08/19 07:58:37;;;;;;;4.95;2.20;;;24.70;90.00;;;;;;4876831;29;20041;-82
2023/08/19 08:01:05;;;;;;;3.05;1.65;;;24.90;89.70;;;;;;4846153;29;20447;-82
2023/08/19 08:03:32;;;;;;;3.03;2.08;;;25.10;89.20;;;;;;4864589;29;20502;-83
2023/08/19 08:06:00;;;;;;;2.80;1.75;;;25.40;89.20;;;;;;4854989;29;20105;-83
2023/08/19 08:08:27;;;;;;;4.28;1.88;;;25.70;88.10;;;;;;4847072;29;20068;-82
2023/08/19 08:10:54;;;;;;;3.28;1.77;;;25.70;87.70;;;;;;4877625;29;20507;-82
2023/08/19 08:13:24;;;;;;;2.92;1.65;;;25.80;87.60;;;;;;4871116;29;20056;-81
2023/08/19 08:15:53;;;;;;;3.17;1.60;;;25.80;87.50;;;;;;4864724;29;20098;-83
2023/08/19 08:18:20;;;;;;;3.58;1.90;;;25.80;87.50;;;;;;4878893;29;20045;-84
2023/08/19 08:20:47;;;;;;;3.45;1.52;;;25.80;87.40;;;;;;4843633;29;20054;-82
2023/08/19 08:23:15;;;;;;;2.00;1.27;;;25.80;87.30;;;;;;4861576;29;20101;-83
2023/08/19 08:25:43;;;;;;;2.40;1.50;;;25.80;88.00;;;;;;4866855;29;20068;-83
2023/08/19 08:28:10;;;;;;;3.33;1.58;;;25.80;87.50;;;;;;4851506;29;20077;-83
2023/08/19 08:30:37;;;;;;;2.60;1.55;;;25.90;87.40;;;;;;4860938;29;20462;-83
2023/08/19 08:33:04;;;;;;;3.00;1.40;;;26.00;87.20;;;;;;4857989;29;20041;-83
2023/08/19 08:35:32;;;;;;;2.85;1.63;;;26.10;87.00;;;;;;4858806;29;20148;-83
2023/08/19 08:37:59;;;;;;;2.05;1.27;;;26.30;86.90;;;;;;4862290;29;20041;-83
2023/08/19 08:40:30;;;;;;;2.13;1.50;;;26.40;86.70;;;;;;4883889;29;20096;-83
2023/08/19 08:43:00;;;;;;;3.50;1.60;;;26.50;86.60;;;;;;4866123;29;20056;-83
2023/08/19 08:45:31;;;;;;;2.65;1.58;;;26.50;86.30;;;;;;4865533;29;20089;-83
2023/08/19 08:48:03;;;;;;;3.03;2.10;;;26.60;86.10;;;;;;4860931;29;20518;-81
2023/08/19 08:50:30;;;;;;;2.60;1.73;;;26.70;85.80;;;;;;4862489;29;20126;-81
2023/08/19 08:52:58;;;;;;;2.63;1.83;;;26.90;85.70;;;;;;4872226;29;20049;-81
2023/08/19 08:55:25;;;;;;;2.70;1.83;;;26.90;85.50;;;;;;4863023;29;20055;-81
2023/08/19 08:57:52;;;;;;;3.47;1.88;;;27.00;85.40;;;;;;4863335;29;20402;-81
2023/08/19 09:00:19;;;;;;;3.25;2.00;;;27.00;85.20;;;;;;4854682;29;20084;-82
2023/08/19 09:02:48;;;;;;;2.95;1.98;;;26.90;85.30;;;;;;4878981;29;20109;-81
2023/08/19 09:05:20;;;;;;;2.58;1.70;;;26.90;85.40;;;;;;4868786;29;20116;-82
2023/08/19 09:07:47;;;;;;;;;;;26.90;85.60;;;;;;4884387;29;20041;-81
2023/08/19 09:10:15;;;;;;;2.40;1.52;;;26.80;85.90;;;;;;4873746;29;19928;-81
2023/08/19 09:12:45;;;;;;;3.72;2.03;;;26.70;86.10;;;;;;4878159;29;20037;-82
2023/08/19 09:15:16;;;;;;;4.03;2.70;;;26.70;86.20;;;;;;4889738;29;20057;-83
2023/08/19 09:17:44;;;;;;;2.57;1.80;;;26.60;86.20;;;;;;4846743;29;20395;-83
2023/08/19 09:20:12;;;;;;;2.95;2.08;;;26.70;86.30;;;;;;4867667;29;20041;-83
2023/08/19 09:22:42;;;;;;;3.33;2.40;;;26.70;86.10;;;;;;4861715;29;20049;-83
2023/08/19 09:25:18;;;;;;;4.20;2.33;;;26.80;86.10;;;;;;4864856;29;20057;-82
2023/08/19 09:27:46;;;;;;;3.60;2.38;;;26.80;85.80;;;;;;4872988;29;20064;-83
2023/08/19 09:30:17;;;;;;;3.20;2.30;;;26.80;85.90;;;;;;4876765;29;20073;-82
2023/08/19 09:32:47;;;;;;;3.10;2.00;;;26.70;86.10;;;;;;4852836;29;20069;-82
2023/08/19 09:35:15;;;;;;;3.88;2.63;;;26.70;86.30;;;;;;4864824;29;20052;-82
2023/08/19 09:37:42;;;;;;;4.47;2.85;;;26.60;86.50;;;;;;4858645;29;20045;-82
2023/08/19 09:40:11;;;;;;;5.25;3.33;;;26.50;86.70;;;;;;4861315;29;20045;-87
2023/08/19 09:42:40;;;;;;;6.47;3.15;;;26.30;86.70;;;;;;4865049;29;20124;-82
2023/08/19 09:45:07;;;;;;;4.55;3.10;;;26.20;87.30;;;;;;4869461;29;20435;-84
2023/08/19 09:47:51;;;;;;;5.28;3.42;;;26.00;87.80;;;;;;4881568;29;20049;-82
2023/08/19 09:50:20;;;;;;;6.70;4.57;;;25.90;88.10;;;;;;4873843;29;20131;-82
2023/08/19 09:52:59;;;;;;;5.10;4.00;;;25.90;88.20;;;;;;4880442;29;20052;-83
2023/08/19 09:55:28;;;;;;;4.85;4.22;;;26.00;88.00;;;;;;4880150;29;20510;-82
2023/08/19 09:57:56;;;;;;;5.13;4.55;;;26.10;87.90;;;;;;4892771;29;20476;-86
2023/08/19 10:00:23;;;;;;;5.20;4.00;;;26.30;87.70;;;;;;4850124;29;20132;-79
2023/08/19 10:02:50;;;;;;;5.47;4.00;;;26.50;87.60;;;;;;4866898;29;20105;-80
2023/08/19 10:05:18;;;;;;;4.97;4.07;;;26.60;87.30;;;;;;4860180;29;20084;-82
2023/08/19 10:08:03;;;;;;;4.57;3.72;;;26.80;87.10;;;;;;4864441;29;20068;-79
2023/08/19 10:10:31;;;;;;;5.13;3.80;;;27.00;86.60;;;;;;4847979;29;20077;-80
2023/08/19 10:13:00;;;;;;;5.30;3.72;;;27.20;86.40;;;;;;4893372;29;20055;-80
2023/08/19 10:15:32;;;;;;;5.32;3.80;;;27.50;86.00;;;;;;4881013;29;20375;-82
2023/08/19 10:18:03;;;;;;;4.03;3.17;;;27.70;85.60;;;;;;4867487;29;20553;-79
2023/08/19 10:20:33;;;;;;;4.20;3.25;;;27.90;85.20;;;;;;4890542;29;20080;-81
2023/08/19 10:23:03;;;;;;;7.43;5.70;;;28.20;84.70;;;;;;4867642;29;20041;-81
2023/08/19 10:25:31;;;;;;;6.90;5.38;;;28.40;83.70;;;;;;4845132;29;20054;-79
2023/08/19 10:28:11;;;;;;;7.25;6.22;;;28.50;83.70;;;;;;4871679;29;20144;-79
2023/08/19 10:30:39;;;;;;;7.90;7.03;;;28.50;83.10;;;;;;4879404;29;20045;-81
2023/08/19 10:33:32;;;;;;;8.65;6.95;;;28.50;83.00;;;;;;4879679;29;20048;-81
2023/08/19 10:36:04;;;;;;;12.27;8.52;;;28.70;82.40;;;;;;4845508;29;20144;-81
2023/08/19 10:38:46;;;;;;;8.65;6.90;;;29.10;81.40;;;;;;4844196;29;20509;-79
2023/08/19 10:41:24;;;;;;;9.30;7.82;;;29.40;80.70;;;;;;4863098;29;20417;-81
2023/08/19 10:43:55;;;;;;;9.25;7.95;;;29.70;80.00;;;;;;4862645;29;20053;-81
2023/08/19 10:46:38;;;;;;;10.20;8.25;;;29.70;79.20;;;;;;4880199;29;20147;-81
2023/08/19 10:49:17;;;;;;;9.27;8.07;;;29.80;78.60;;;;;;4863608;29;20490;-79
2023/08/19 10:51:51;;;;;;;10.93;8.55;;;29.70;78.60;;;;;;4863236;29;20093;-80
2023/08/19 10:54:38;;;;;;;9.48;8.35;;;29.90;78.30;;;;;;4864826;29;20056;-86
2023/08/19 10:57:10;;;;;;;11.63;10.25;;;30.10;77.90;;;;;;4849626;29;20100;-85
2023/08/19 10:59:40;;;;;;;9.57;8.60;;;30.00;77.30;;;;;;4864185;29;20049;-84
2023/08/19 11:02:08;;;;;;;8.60;7.70;;;29.90;77.80;;;;;;4863715;29;20520;-83
2023/08/19 11:04:45;;;;;;;8.63;7.72;;;30.10;77.70;;;;;;4864432;29;20409;-83
2023/08/19 11:07:13;;;;;;;11.85;9.50;;;30.10;77.60;;;;;;4882776;29;20101;-87
2023/08/19 11:09:42;;;;;;;9.80;7.85;;;29.90;77.70;;;;;;4863167;29;20049;-85
2023/08/19 11:12:11;;;;;;;10.90;9.38;;;29.70;78.20;;;;;;4863423;29;20045;-86
2023/08/19 11:14:38;;;;;;;11.45;10.02;;;29.80;78.20;;;;;;4848536;29;20064;-86
2023/08/19 11:17:05;;;;;;;10.32;9.30;;;29.60;78.20;;;;;;4878877;29;20405;-86
2023/08/19 11:19:32;;;;;;;14.35;10.20;;;29.40;78.70;;;;;;4863328;29;20157;-85
2023/08/19 11:21:59;;;;;;;12.98;11.02;;;29.40;78.90;;;;;;4848048;29;20100;-85
2023/08/19 11:24:34;;;;;;;12.82;11.45;;;29.20;79.10;;;;;;4862806;29;20494;-85
2023/08/19 11:27:02;;;;;;;12.80;11.38;;;29.20;79.20;;;;;;4863545;29;20049;-87
2023/08/19 11:29:29;;;;;;;13.75;12.02;;;29.10;79.50;;;;;;4863110;29;20189;-86
2023/08/19 11:31:57;;;;;;;14.68;11.90;;;29.00;79.70;;;;;;4862997;29;20504;-86
2023/08/19 11:34:32;;;;;;;12.40;11.05;;;28.90;80.00;;;;;;4872675;29;20048;-90
2023/08/19 11:37:04;;;;;;;14.40;12.13;;;28.80;80.30;;;;;;4876159;29;20049;-86
2023/08/19 11:39:32;;;;;;;14.82;12.80;;;28.70;80.40;;;;;;4863478;29;20080;-89
2023/08/19 11:42:01;;;;;;;14.18;12.77;;;28.60;80.60;;;;;;4860324;29;20057;-88
2023/08/19 11:44:29;;;;;;;13.25;11.85;;;28.50;80.70;;;;;;4844954;29;20045;-89
2023/08/19 11:46:58;;;;;;;14.05;12.70;;;28.40;80.90;;;;;;4840331;29;20057;-90
2023/08/19 11:49:31;;;;;;;14.57;12.95;;;28.20;81.20;;;;;;4863167;29;20053;-89
2023/08/19 11:51:59;;;;;;;11.68;10.55;;;28.10;81.50;;;;;;4863565;29;20045;-89
2023/08/19 11:54:27;;;;;;;11.35;10.18;;;28.00;81.80;;;;;;4863688;29;20056;-89
2023/08/19 11:56:59;;;;;;;11.05;9.95;;;28.00;81.90;;;;;;4863692;29;20120;-89
2023/08/19 11:59:34;;;;;;;12.80;11.25;;;28.00;81.90;;;;;;4877067;29;20048;-89
2023/08/19 12:02:07;;;;;;;11.57;10.38;;;28.00;81.70;;;;;;4848205;29;20076;-82
2023/08/19 12:04:35;;;;;;;11.02;9.93;;;27.80;81.70;;;;;;4878676;29;20155;-91
2023/08/19 12:07:10;;;;;;;10.52;9.10;;;27.70;81.80;;;;;;4863235;29;20488;-87
2023/08/19 12:09:39;;;;;;;9.25;8.25;;;27.60;82.00;;;;;;4878736;29;20083;-84
2023/08/19 12:12:09;;;;;;;9.48;8.43;;;27.50;82.10;;;;;;4862654;29;20045;-84
2023/08/19 12:14:38;;;;;;;8.90;7.13;;;27.40;82.20;;;;;;4878657;29;20128;-83
2023/08/19 12:17:08;;;;;;;8.85;6.72;;;27.20;82.60;;;;;;4847285;29;20084;-83
2023/08/19 12:19:36;;;;;;;7.00;5.47;;;26.90;83.00;;;;;;4862231;29;20044;-84
2023/08/19 12:22:03;;;;;;;7.63;6.25;;;26.60;83.70;;;;;;4867464;29;20048;-88
2023/08/19 12:24:31;;;;;;;7.88;6.00;;;26.50;84.10;;;;;;4854317;29;20063;-83
2023/08/19 12:26:59;;;;;;;6.88;5.30;;;26.40;84.00;;;;;;4862354;29;20059;-88
2023/08/19 12:29:28;;;;;;;6.93;5.28;;;26.40;84.00;;;;;;4832989;29;20091;-85
2023/08/19 12:31:55;;;;;;;6.47;4.85;;;26.50;84.00;;;;;;4846762;29;20049;-86
2023/08/19 12:34:22;;;;;;;8.07;6.20;;;26.50;83.80;;;;;;4847245;29;20053;-86
2023/08/19 12:36:50;;;;;;;8.63;6.03;;;26.50;83.70;;;;;;4862068;29;20494;-86
2023/08/19 12:39:23;;;;;;;8.02;5.60;;;26.50;83.80;;;;;;4833209;29;20136;-87
2023/08/19 12:41:53;;;;;;;8.27;6.45;;;26.40;83.90;;;;;;4862028;29;20056;-86
2023/08/19 12:44:20;;;;;;;6.47;4.93;;;26.40;83.90;;;;;;4846896;29;20482;-85
2023/08/19 12:46:49;;;;;;;6.65;4.72;;;26.50;84.00;;;;;;4877880;29;20049;-87
2023/08/19 12:49:16;;;;;;;5.00;3.58;;;26.60;84.00;;;;;;4862105;29;20410;-87
2023/08/19 12:51:43;;;;;;;5.65;4.00;;;26.60;83.70;;;;;;4862225;29;20060;-87
2023/08/19 12:54:10;;;;;;;5.15;3.85;;;26.70;83.50;;;;;;4861709;29;20486;-82
2023/08/19 12:56:37;;;;;;;6.45;3.90;;;26.70;83.40;;;;;;4861855;29;20057;-86
2023/08/19 12:59:04;;;;;;;8.40;5.32;;;26.60;83.10;;;;;;4846545;29;20049;-85
2023/08/19 13:01:32;;;;;;;6.28;4.45;;;26.50;82.80;;;;;;4861837;29;20502;-85
2023/08/19 13:04:00;;;;;;;8.70;5.55;;;26.50;83.00;;;;;;4862122;29;20049;-83
2023/08/19 13:06:27;;;;;;;9.38;5.55;;;26.40;82.90;;;;;;4844431;29;20056;-84
2023/08/19 13:08:55;;;;;;;9.60;6.38;;;26.30;83.00;;;;;;4864721;29;20151;-81
2023/08/19 13:11:22;;;;;;;8.68;5.75;;;26.20;83.20;;;;;;4861591;29;20071;-86
2023/08/19 13:13:49;;;;;;;7.07;4.40;;;26.10;83.30;;;;;;4865859;29;20045;-83
2023/08/19 13:16:16;;;;;;;6.00;3.05;;;25.90;82.20;;;;;;4863280;29;20164;-84
2023/08/19 13:18:43;;;;;;;5.75;2.97;;;25.80;82.00;;;;;;4834979;29;20044;-84
2023/08/19 13:21:11;;;;;;;6.15;2.92;;;25.70;81.90;;;;;;4850038;29;20045;-85
2023/08/19 13:23:38;;;;;;;4.00;2.50;;;25.70;81.70;;;;;;4849993;29;20049;-85
2023/08/19 13:26:08;;;;;;;4.05;2.10;;;25.70;81.30;;;;;;4835809;29;20081;-89
2023/08/19 13:28:36;;;;;;;4.25;2.72;;;25.70;81.10;;;;;;4865786;29;20069;-88
2023/08/19 13:31:05;;;;;;;3.65;1.92;;;25.80;80.90;;;;;;4865534;29;20147;-89
2023/08/19 13:33:33;;;;;;;3.17;1.95;;;25.80;80.40;;;;;;4866084;29;20097;-83
2023/08/19 13:36:00;;;;;;;4.20;2.47;;;25.80;80.60;;;;;;4862002;29;20050;-84
2023/08/19 13:38:31;;;;;;;4.35;2.05;;;25.70;80.60;;;;;;4846637;29;20140;-82
2023/08/19 13:41:03;;;;;;;;;;;25.70;80.80;;;;;;4848847;29;20129;-83
2023/08/19 13:43:30;;;;;;;3.45;1.50;;;25.60;81.00;;;;;;4865079;29;19930;-84
2023/08/19 13:45:57;;;;;;;3.67;1.90;;;25.50;81.30;;;;;;4866455;29;20498;-85
2023/08/19 13:48:26;;;;;;;3.60;1.92;;;25.50;81.50;;;;;;4850965;29;20060;-82
2023/08/19 13:50:53;;;;;;;3.50;1.63;;;25.40;81.50;;;;;;4863235;29;20469;-81
2023/08/19 13:53:20;;;;;;;5.15;2.17;;;25.30;81.70;;;;;;4865037;29;20204;-81
2023/08/19 13:55:47;;;;;;;4.78;2.15;;;25.20;81.80;;;;;;4865529;29;20036;-86
2023/08/19 13:58:18;;;;;;;4.97;1.95;;;25.20;82.00;;;;;;4871745;29;20048;-82
2023/08/19 14:00:49;;;;;;;4.95;1.75;;;25.10;82.10;;;;;;4889083;29;20053;-83
2023/08/19 14:03:18;;;;;;;4.20;2.00;;;25.10;82.30;;;;;;4850962;29;20408;-86
2023/08/19 14:05:45;;;;;;;4.07;2.10;;;25.00;82.50;;;;;;4866653;29;20057;-93
2023/08/19 14:08:15;;;;;;;4.53;2.25;;;24.90;82.70;;;;;;4865549;29;20053;-85
2023/08/19 14:10:45;;;;;;;4.10;2.22;;;24.80;82.80;;;;;;4859847;29;20049;-85
2023/08/19 14:13:17;;;;;;;4.55;2.17;;;24.80;83.10;;;;;;4878547;29;20127;-85
2023/08/19 14:15:45;;;;;;;5.30;2.20;;;24.70;83.30;;;;;;4881365;29;20183;-85
2023/08/19 14:18:14;;;;;;;5.80;2.15;;;24.70;83.50;;;;;;4865873;29;20406;-85
2023/08/19 14:20:43;;;;;;;2.92;1.40;;;24.70;83.60;;;;;;4865787;29;20045;-86
2023/08/19 14:23:15;;;;;;;2.50;1.00;;;24.50;82.60;;;;;;4866118;29;20081;-86
2023/08/19 14:25:49;;;;;;;2.35;0.68;;;24.30;81.90;;;;;;4861916;29;20065;-85
2023/08/19 14:28:17;;;;;;;1.17;0.52;;;23.90;81.80;;;;;;4875395;29;20116;-85
2023/08/19 14:30:44;;;;;;;0.60;0.22;;;23.80;81.90;;;;;;4879519;29;20064;-84
2023/08/19 14:33:14;;;;;;;2.58;0.40;;;23.70;79.90;;;;;;4892135;29;20128;-85
2023/08/19 14:35:43;;;;;;;2.05;0.30;;;23.70;79.00;;;;;;4835831;29;20139;-86
2023/08/19 14:38:11;;;;;;;1.33;0.40;;;23.80;77.20;;;;;;4863834;29;20037;-84
2023/08/19 14:40:39;;;;;;;2.08;0.25;;;23.80;76.60;;;;;;4870318;29;20374;-86
2023/08/19 14:43:15;;;;;;;0.93;0.17;;;23.90;75.40;;;;;;4864062;29;20144;-81
2023/08/19 14:45:42;;;;;;;0.38;0.10;;;24.10;75.10;;;;;;4864115;29;20490;-81
2023/08/19 14:48:09;;;;;;;1.48;0.17;;;24.20;74.40;;;;;;4839580;29;20924;-80
2023/08/19 14:50:36;;;;;;;0.98;0.20;;;24.60;72.70;;;;;;4886743;29;20041;-80
2023/08/19 14:53:04;;;;;;;0.77;0.10;;;24.90;71.30;;;;;;4853000;29;20040;-79
2023/08/19 14:55:33;;;;;;;1.30;0.20;;;25.40;71.10;;;;;;4871901;29;20041;-78
2023/08/19 14:58:03;;;;;;;0.73;0.10;;;25.70;69.70;;;;;;4833153;29;20041;-78
2023/08/19 15:00:30;;;;;;;1.85;0.30;;;25.80;69.30;;;;;;4863889;29;20048;-77
2023/08/19 15:02:58;;;;;;;0.77;0.30;;;26.20;67.40;;;;;;4863283;29;20073;-80
2023/08/19 15:05:27;;;;;;;0.70;0.20;;;26.40;67.60;;;;;;4871381;29;20072;-81
2023/08/19 15:07:54;;;;;;;0.70;0.30;;;26.50;67.90;;;;;;4867656;29;20045;-84
2023/08/19 15:10:23;;;;;;;0.50;0.10;;;27.40;66.90;;;;;;4848779;29;20048;-84
2023/08/19 15:12:50;;;;;;;1.55;0.20;;;27.80;64.50;;;;;;4876230;29;20045;-85
2023/08/19 15:15:24;;;;;;;1.73;0.30;;;27.70;64.60;;;;;;4845368;29;20057;-86
2023/08/19 15:17:53;;;;;;;1.92;0.30;;;28.00;63.90;;;;;;4862812;29;20132;-82
2023/08/19 15:20:21;;;;;;;0.98;0.25;;;28.10;63.40;;;;;;4863346;29;20040;-80
2023/08/19 15:22:48;;;;;;;2.22;0.40;;;28.90;62.20;;;;;;4863060;29;20461;-80
2023/08/19 15:25:15;;;;;;;1.02;0.30;;;30.10;60.40;;;;;;4862797;29;20064;-81
2023/08/19 15:27:42;;;;;;;2.80;0.70;;;31.10;58.40;;;;;;4862923;29;20049;-81
2023/08/19 15:30:11;;;;;;;1.40;0.40;;;31.60;56.90;;;;;;4862361;29;20053;-81
2023/08/19 15:32:38;;;;;;;1.15;0.43;;;32.00;56.90;;;;;;4879774;29;20044;-81
2023/08/19 15:35:07;;;;;;;1.75;0.43;;;32.30;56.00;;;;;;4848352;29;20120;-81
2023/08/19 15:37:35;;;;;;;2.50;0.82;;;31.90;56.90;;;;;;4863484;29;20044;-81
2023/08/19 15:40:04;;;;;;;2.25;0.65;;;32.00;56.60;;;;;;4849875;29;20554;-80
2023/08/19 15:42:31;;;;;;;1.50;0.55;;;32.40;56.10;;;;;;4862919;29;20045;-80
2023/08/19 15:44:58;;;;;;;1.60;0.50;;;32.90;56.20;;;;;;4862870;29;20052;-81
2023/08/19 15:47:25;;;;;;;0.82;0.40;;;33.30;55.70;;;;;;4862725;29;20056;-81
2023/08/19 15:49:52;;;;;;;1.33;0.32;;;33.40;55.50;;;;;;4868574;29;20568;-80
2023/08/19 15:52:19;;;;;;;2.35;0.70;;;33.30;55.80;;;;;;4868947;29;20148;-81
2023/08/19 15:54:46;;;;;;;1.63;0.60;;;33.40;55.20;;;;;;4862739;29;20045;-80
2023/08/19 15:57:13;;;;;;;2.92;0.40;;;33.40;55.50;;;;;;4862938;29;20045;-80
2023/08/19 15:59:40;;;;;;;1.80;0.70;;;33.50;55.50;;;;;;4860350;29;20464;-80
2023/08/19 16:02:07;;;;;;;2.05;0.60;;;33.80;54.70;;;;;;4859167;29;20053;-81
2023/08/19 16:04:34;;;;;;;3.33;0.68;;;33.30;55.00;;;;;;4858357;29;20157;-81
2023/08/19 16:07:02;;;;;;;2.75;0.75;;;32.10;57.00;;;;;;4831772;29;20052;-81
2023/08/19 16:09:29;;;;;;;1.60;0.50;;;31.00;58.30;;;;;;4862484;29;20049;-81
2023/08/19 16:11:57;;;;;;;4.15;0.85;;;30.30;59.30;;;;;;4862588;29;20060;-80
2023/08/19 16:14:24;;;;;;;2.35;0.80;;;29.60;60.20;;;;;;4862413;29;20053;-80
2023/08/19 16:16:50;;;;;;;3.25;0.60;;;29.00;61.10;;;;;;4846869;29;20052;-80
2023/08/19 16:19:17;;;;;;;3.75;0.90;;;28.40;62.00;;;;;;4832061;29;20057;-80
2023/08/19 16:21:45;;;;;;;2.58;0.93;;;27.90;62.80;;;;;;4862298;29;20041;-80
2023/08/19 16:24:12;;;;;;;2.45;0.75;;;27.50;63.40;;;;;;4877560;29;20049;-80
2023/08/19 16:26:39;;;;;;;2.55;1.13;;;27.80;63.50;;;;;;4878410;29;20053;-80
2023/08/19 16:29:06;;;;;;;11.02;4.60;;;28.90;61.40;;;;;;4847019;29;20041;-80
2023/08/19 16:31:33;;;;;;;8.65;3.22;;;30.10;59.50;;;;;;4831621;29;20097;-80
2023/08/19 16:34:02;;;;;;;6.35;2.28;;;31.20;58.00;;;;;;4852996;29;20052;-80
2023/08/19 16:36:29;;;;;;;4.75;1.40;;;31.70;56.80;;;;;;4872644;29;20399;-78
2023/08/19 16:38:56;;;;;;;3.22;1.02;;;31.60;56.50;;;;;;4864709;29;20056;-78
2023/08/19 16:41:23;;;;;;;2.65;1.13;;;31.00;57.00;;;;;;4862832;29;20045;-79
2023/08/19 16:43:50;;;;;;;3.03;1.35;;;30.80;57.60;;;;;;4878296;29;20067;-80
2023/08/19 16:46:17;;;;;;;3.03;1.30;;;30.60;57.90;;;;;;4851209;29;20445;-78
2023/08/19 16:48:44;;;;;;;3.17;0.95;;;31.10;57.50;;;;;;4865952;29;20052;-79
2023/08/19 16:51:11;;;;;;;2.88;0.88;;;31.30;56.50;;;;;;4866100;29;20052;-79
2023/08/19 16:53:38;;;;;;;3.55;1.00;;;31.20;57.10;;;;;;4865693;29;20059;-79
2023/08/19 16:56:06;;;;;;;2.28;0.80;;;30.70;58.00;;;;;;4865775;29;20045;-79
2023/08/19 16:58:32;;;;;;;3.70;0.93;;;30.10;59.10;;;;;;4865492;29;20117;-79
2023/08/19 17:01:04;;;;;;;2.38;0.88;;;29.60;60.00;;;;;;4865935;29;20442;-79
2023/08/19 17:03:32;;;;;;;2.67;0.90;;;30.10;59.20;;;;;;4865580;29;20101;-79
2023/08/19 17:06:03;;;;;;;2.30;0.60;;;30.80;57.60;;;;;;4865925;29;20549;-79
2023/08/19 17:08:32;;;;;;;5.47;1.00;;;31.40;56.60;;;;;;4854226;29;20057;-79
2023/08/19 17:11:00;;;;;;;3.65;0.80;;;31.80;55.40;;;;;;4866051;29;20048;-79
2023/08/19 17:13:27;;;;;;;5.75;2.70;;;32.00;55.00;;;;;;4850157;29;20045;-79
2023/08/19 17:15:56;;;;;;;5.22;1.73;;;32.20;54.70;;;;;;4865442;29;20125;-83
2023/08/19 17:18:24;;;;;;;4.85;1.55;;;32.30;54.30;;;;;;4850147;29;20447;-84
2023/08/19 17:20:52;;;;;;;4.75;0.90;;;32.40;54.30;;;;;;4866009;29;20067;-83
2023/08/19 17:23:20;;;;;;;3.63;1.10;;;32.40;54.20;;;;;;4865876;29;20490;-83
2023/08/19 17:25:48;;;;;;;2.67;0.75;;;32.30;54.00;;;;;;4865845;29;20053;-83
2023/08/19 17:28:15;;;;;;;8.32;4.63;;;32.10;54.30;;;;;;4882181;29;20454;-83
2023/08/19 17:30:42;;;;;;;5.88;3.00;;;32.10;54.50;;;;;;4850124;29;20417;-83
2023/08/19 17:33:11;;;;;;;7.18;2.72;;;32.00;54.40;;;;;;4859370;29;20046;-83
2023/08/19 17:35:39;;;;;;;4.63;2.00;;;32.00;54.30;;;;;;4864762;29;20405;-83
2023/08/19 17:38:06;;;;;;;4.65;1.83;;;31.60;55.10;;;;;;4881899;29;20073;-84
2023/08/19 17:40:35;;;;;;;5.95;2.95;;;30.70;56.40;;;;;;4865239;29;20105;-83
2023/08/19 17:43:02;;;;;;;5.55;1.65;;;29.70;58.20;;;;;;4864901;29;20049;-83
2023/08/19 17:45:32;;;;;;;4.70;2.35;;;28.70;59.80;;;;;;4849685;29;20059;-83
2023/08/19 17:47:59;;;;;;;7.53;2.85;;;27.80;61.40;;;;;;4849596;29;20060;-84
2023/08/19 17:50:26;;;;;;;61.50;37.75;;;27.10;62.70;;;;;;4864687;29;20057;-83
2023/08/19 17:52:53;;;;;;;21.55;12.80;;;26.70;63.60;;;;;;4863694;29;20406;-84
2023/08/19 17:55:20;;;;;;;21.52;11.75;;;26.30;64.30;;;;;;4864631;29;20395;-83
2023/08/19 17:57:50;;;;;;;11.35;6.43;;;25.80;65.10;;;;;;4864890;29;20037;-84
2023/08/19 18:00:17;;;;;;;8.80;4.03;;;25.50;65.80;;;;;;4865140;29;20073;-84
2023/08/19 18:02:44;;;;;;;8.88;3.78;;;25.20;66.30;;;;;;4849460;29;20137;-83
2023/08/19 18:05:11;;;;;;;6.38;2.83;;;24.90;66.80;;;;;;4849505;29;20053;-84
2023/08/19 18:07:38;;;;;;;3.90;2.05;;;24.70;67.20;;;;;;4864401;29;20033;-84
2023/08/19 18:10:06;;;;;;;3.75;1.67;;;24.60;67.50;;;;;;4848817;29;20375;-83
2023/08/19 18:12:33;;;;;;;4.05;1.63;;;24.50;67.70;;;;;;4849202;29;20052;-84
2023/08/19 18:15:00;;;;;;;2.30;0.90;;;24.40;68.10;;;;;;4833605;29;20146;-84